createdAt,value
2019-02-09T00:00:19.976Z,77
2019-02-09T00:01:20.575Z,77
2019-02-09T00:02:19.481Z,76
2019-02-09T00:03:19.727Z,76
2019-02-09T00:04:19.495Z,77
2019-02-09T00:05:20.490Z,77
2019-02-09T00:06:35.839Z,77
2019-02-09T00:07:20.387Z,76
2019-02-09T00:08:19.692Z,76
2019-02-09T00:09:19.754Z,76
2019-02-09T00:10:19.679Z,76
2019-02-09T00:11:20.324Z,76
2019-02-09T00:12:19.532Z,76
2019-02-09T00:13:19.671Z,76
2019-02-09T00:14:19.907Z,77
2019-02-09T00:15:19.694Z,77
2019-02-09T00:16:19.968Z,77
2019-02-09T00:17:19.712Z,77
2019-02-09T00:18:19.494Z,77
2019-02-09T00:19:19.443Z,78
2019-02-09T00:20:19.509Z,78
2019-02-09T00:21:19.590Z,78
2019-02-09T00:22:20.023Z,78
2019-02-09T00:23:19.787Z,78
2019-02-09T00:24:20.723Z,78
2019-02-09T00:25:19.717Z,78
2019-02-09T00:26:19.947Z,78
2019-02-09T00:27:20.456Z,78
2019-02-09T00:28:20.182Z,78
2019-02-09T00:29:19.650Z,78
2019-02-09T00:30:20.536Z,78
2019-02-09T00:31:20.339Z,78
2019-02-09T00:32:20.493Z,78
2019-02-09T00:33:19.553Z,78
2019-02-09T00:34:19.780Z,78
2019-02-09T00:35:21.274Z,78
2019-02-09T00:36:19.516Z,78
2019-02-09T00:37:19.556Z,78
2019-02-09T00:38:21.285Z,78
2019-02-09T00:39:19.862Z,78
2019-02-09T00:40:20.159Z,78
2019-02-09T00:41:19.759Z,78
2019-02-09T00:44:00.906Z,78
2019-02-09T00:44:09.925Z,78
2019-02-09T00:45:10.688Z,78
2019-02-09T00:46:09.750Z,78
2019-02-09T00:47:10.015Z,78
2019-02-09T00:48:09.950Z,78
2019-02-09T00:49:09.803Z,78
2019-02-09T00:50:09.974Z,78
2019-02-09T00:51:10.149Z,78
2019-02-09T00:52:10.219Z,78
2019-02-09T00:53:10.226Z,79
2019-02-09T00:54:09.782Z,79
2019-02-09T00:55:10.823Z,78
2019-02-09T00:56:09.948Z,78
2019-02-09T00:57:11.234Z,78
2019-02-09T00:58:09.962Z,78
2019-02-09T00:59:09.844Z,78
2019-02-09T01:00:10.108Z,78
2019-02-09T01:01:11.203Z,78
2019-02-09T01:02:10.183Z,78
2019-02-09T01:03:09.974Z,78
2019-02-09T01:04:10.182Z,78
2019-02-09T01:05:09.704Z,78
2019-02-09T01:06:09.981Z,78
2019-02-09T01:07:09.958Z,78
2019-02-09T01:08:10.601Z,76
2019-02-09T01:09:10.607Z,76
2019-02-09T01:10:09.972Z,76
2019-02-09T01:11:11.266Z,76
2019-02-09T01:12:09.961Z,76
2019-02-09T01:13:09.937Z,76
2019-02-09T01:14:10.538Z,76
2019-02-09T01:15:10.673Z,76
2019-02-09T01:16:11.316Z,76
2019-02-09T01:17:10.034Z,76
2019-02-09T01:18:11.036Z,77
2019-02-09T01:19:10.601Z,77
2019-02-09T01:20:10.214Z,77
2019-02-09T01:21:11.487Z,77
2019-02-09T01:22:11.865Z,77
2019-02-09T01:23:10.802Z,78
2019-02-09T01:24:11.056Z,78
2019-02-09T01:25:13.226Z,78
2019-02-09T01:26:10.047Z,77
2019-02-09T01:27:09.986Z,77
2019-02-09T01:28:09.838Z,77
2019-02-09T01:29:10.599Z,77
2019-02-09T01:30:10.002Z,77
2019-02-09T01:31:09.916Z,76
2019-02-09T01:32:10.002Z,76
2019-02-09T01:33:11.018Z,76
2019-02-09T01:34:10.035Z,76
2019-02-09T01:35:10.217Z,76
2019-02-09T01:36:09.815Z,75
2019-02-09T01:37:09.855Z,75
2019-02-09T01:38:10.275Z,74
2019-02-09T01:39:26.249Z,74
2019-02-09T01:40:10.214Z,74
2019-02-09T01:41:10.019Z,73
2019-02-09T01:42:11.364Z,73
2019-02-09T01:43:10.330Z,73
2019-02-09T01:44:12.936Z,73
2019-02-09T01:45:10.070Z,73
2019-02-09T01:46:09.909Z,73
2019-02-09T01:47:10.753Z,73
2019-02-09T01:48:10.916Z,73
2019-02-09T01:49:10.118Z,73
2019-02-09T01:50:10.578Z,73
2019-02-09T01:51:11.378Z,72
2019-02-09T01:52:09.861Z,72
2019-02-09T01:53:10.695Z,72
2019-02-09T01:54:10.074Z,72
2019-02-09T01:55:10.156Z,72
2019-02-09T01:56:10.399Z,73
2019-02-09T01:57:10.293Z,73
2019-02-09T01:58:11.145Z,73
2019-02-09T01:59:09.948Z,73
2019-02-09T02:00:10.533Z,73
2019-02-09T02:01:10.084Z,73
2019-02-09T02:02:09.966Z,73
2019-02-09T02:03:10.368Z,73
2019-02-09T02:04:10.463Z,73
2019-02-09T02:05:10.705Z,73
2019-02-09T02:06:12.282Z,72
2019-02-09T02:07:11.707Z,72
2019-02-09T02:08:09.885Z,72
2019-02-09T02:09:10.841Z,72
2019-02-09T02:10:10.943Z,72
2019-02-09T02:11:11.409Z,72
2019-02-09T02:12:09.995Z,72
2019-02-09T02:13:10.384Z,72
2019-02-09T02:14:10.605Z,71
2019-02-09T02:15:10.063Z,71
2019-02-09T02:16:10.335Z,71
2019-02-09T02:17:26.176Z,71
2019-02-09T02:18:10.091Z,71
2019-02-09T02:19:09.972Z,71
2019-02-09T02:20:10.226Z,71
2019-02-09T02:21:10.359Z,71
2019-02-09T02:22:10.078Z,71
2019-02-09T02:23:10.357Z,71
2019-02-09T02:24:10.896Z,71
2019-02-09T02:25:10.880Z,71
2019-02-09T02:26:10.139Z,71
2019-02-09T02:27:20.156Z,71
2019-02-09T02:28:11.375Z,71
2019-02-09T02:29:10.331Z,70
2019-02-09T02:30:10.188Z,70
2019-02-09T02:31:09.922Z,70
2019-02-09T02:32:10.154Z,71
2019-02-09T02:33:10.403Z,71
2019-02-09T02:34:10.122Z,70
2019-02-09T02:35:10.110Z,70
2019-02-09T02:36:10.065Z,70
2019-02-09T02:37:10.729Z,70
2019-02-09T02:39:23.210Z,70
2019-02-09T02:40:23.034Z,70
2019-02-09T02:41:23.860Z,70
2019-02-09T02:42:23.484Z,70
2019-02-09T02:43:22.988Z,70
2019-02-09T02:44:23.160Z,69
2019-02-09T02:45:23.190Z,69
2019-02-09T02:46:23.398Z,69
2019-02-09T02:47:23.241Z,69
2019-02-09T02:48:23.453Z,69
2019-02-09T02:49:51.924Z,69
2019-02-09T02:50:23.239Z,69
2019-02-09T02:51:23.452Z,69
2019-02-09T02:52:23.139Z,69
2019-02-09T02:53:23.032Z,69
2019-02-09T02:54:23.676Z,69
2019-02-09T02:55:23.868Z,69
2019-02-09T02:56:23.727Z,69
2019-02-09T02:57:24.756Z,69
2019-02-09T02:58:23.474Z,69
2019-02-09T02:59:23.197Z,69
2019-02-09T03:00:31.381Z,69
2019-02-09T03:01:23.529Z,69
2019-02-09T03:02:23.017Z,69
2019-02-09T03:03:24.022Z,69
2019-02-09T03:04:23.757Z,69
2019-02-09T03:05:23.191Z,69
2019-02-09T03:06:23.354Z,69
2019-02-09T03:07:23.687Z,71
2019-02-09T03:08:23.849Z,71
2019-02-09T03:09:23.899Z,71
2019-02-09T03:10:23.416Z,72
2019-02-09T03:11:23.477Z,72
2019-02-09T03:12:23.234Z,73
2019-02-09T03:13:23.084Z,73
2019-02-09T03:14:23.804Z,73
2019-02-09T03:15:24.123Z,72
2019-02-09T03:16:23.175Z,72
2019-02-09T03:17:23.680Z,72
2019-02-09T03:18:23.932Z,72
2019-02-09T03:19:23.234Z,72
2019-02-09T03:20:23.472Z,73
2019-02-09T03:21:23.257Z,73
2019-02-09T03:22:23.080Z,74
2019-02-09T03:23:23.887Z,74
2019-02-09T03:24:23.208Z,74
2019-02-09T03:25:23.571Z,74
2019-02-09T03:26:23.485Z,74
2019-02-09T03:30:46.580Z,74
2019-02-09T03:30:54.537Z,74
2019-02-09T03:31:53.794Z,74
2019-02-09T03:32:53.966Z,75
2019-02-09T03:33:54.283Z,75
2019-02-09T03:34:54.604Z,75
2019-02-09T03:35:54.141Z,76
2019-02-09T03:36:54.011Z,76
2019-02-09T03:37:53.637Z,76
2019-02-09T03:38:53.787Z,76
2019-02-09T03:39:53.795Z,76
2019-02-09T03:40:53.873Z,77
2019-02-09T03:41:53.820Z,77
2019-02-09T03:42:54.034Z,77
2019-02-09T03:43:53.783Z,77
2019-02-09T03:44:53.824Z,77
2019-02-09T03:45:53.813Z,77
2019-02-09T03:46:54.000Z,77
2019-02-09T03:47:53.811Z,77
2019-02-09T03:48:54.240Z,77
2019-02-09T03:49:53.746Z,77
2019-02-09T03:50:54.025Z,77
2019-02-09T03:51:53.561Z,77
2019-02-09T03:52:53.731Z,76
2019-02-09T03:53:54.009Z,76
2019-02-09T03:54:53.496Z,76
2019-02-09T03:55:53.537Z,75
2019-02-09T03:56:53.972Z,75
2019-02-09T03:57:53.581Z,75
2019-02-09T03:58:53.764Z,75
2019-02-09T03:59:54.327Z,75
2019-02-09T04:00:55.223Z,73
2019-02-09T04:01:54.283Z,73
2019-02-09T04:02:53.637Z,72
2019-02-09T04:03:54.045Z,72
2019-02-09T04:05:10.127Z,72
2019-02-09T04:05:53.768Z,71
2019-02-09T04:06:53.776Z,71
2019-02-09T04:07:53.974Z,71
2019-02-09T04:08:54.049Z,72
2019-02-09T04:09:53.544Z,72
2019-02-09T04:10:54.154Z,72
2019-02-09T04:11:53.677Z,72
2019-02-09T04:12:53.855Z,72
2019-02-09T04:13:54.098Z,73
2019-02-09T04:15:18.851Z,73
2019-02-09T04:15:54.079Z,73
2019-02-09T04:16:53.839Z,73
2019-02-09T04:17:56.053Z,73
2019-02-09T04:18:54.594Z,75
2019-02-09T04:19:54.814Z,75
2019-02-09T04:20:53.932Z,76
2019-02-09T04:21:53.924Z,76
2019-02-09T04:22:53.750Z,76
2019-02-09T04:23:54.481Z,76
2019-02-09T04:24:56.914Z,76
2019-02-09T04:25:54.150Z,76
2019-02-09T04:26:53.885Z,76
2019-02-09T04:27:55.820Z,76
2019-02-09T04:28:54.147Z,76
2019-02-09T04:29:54.558Z,76
2019-02-09T04:30:54.192Z,77
2019-02-09T04:31:54.170Z,77
2019-02-09T04:32:53.917Z,77
2019-02-09T04:33:54.617Z,78
2019-02-09T04:35:22.050Z,78
2019-02-09T04:35:54.360Z,78
2019-02-09T04:36:54.393Z,79
2019-02-09T04:37:53.910Z,79
2019-02-09T04:38:53.898Z,79
2019-02-09T04:39:54.162Z,79
2019-02-09T04:40:53.794Z,79
2019-02-09T04:41:53.864Z,80
2019-02-09T04:42:53.737Z,80
2019-02-09T04:43:54.262Z,81
2019-02-09T04:44:53.750Z,81
2019-02-09T04:47:06.615Z,81
2019-02-09T04:48:06.195Z,81
2019-02-09T04:49:06.246Z,82
2019-02-09T04:50:06.641Z,82
2019-02-09T04:51:06.482Z,82
2019-02-09T04:52:06.452Z,82
2019-02-09T04:53:07.127Z,82
2019-02-09T04:54:06.466Z,81
2019-02-09T04:55:06.567Z,81
2019-02-09T04:56:08.355Z,81
2019-02-09T05:03:40.422Z,81
2019-02-09T05:03:53.790Z,81
2019-02-09T05:04:53.138Z,82
2019-02-09T05:05:53.152Z,82
2019-02-09T05:06:53.274Z,82
2019-02-09T05:07:54.168Z,82
2019-02-09T05:08:53.129Z,82
2019-02-09T05:09:53.845Z,82
2019-02-09T05:10:53.544Z,82
2019-02-09T05:11:53.258Z,83
2019-02-09T05:12:53.309Z,83
2019-02-09T05:13:53.161Z,83
2019-02-09T05:14:53.325Z,84
2019-02-09T05:15:53.558Z,84
2019-02-09T05:16:53.378Z,84
2019-02-09T05:17:53.356Z,84
2019-02-09T05:18:53.601Z,84
2019-02-09T05:19:53.283Z,84
2019-02-09T05:20:53.120Z,84
2019-02-09T05:21:53.366Z,84
2019-02-09T05:22:53.545Z,84
2019-02-09T05:23:53.126Z,84
2019-02-09T05:24:53.740Z,84
2019-02-09T05:25:53.892Z,84
2019-02-09T05:26:53.095Z,84
2019-02-09T05:27:53.281Z,84
2019-02-09T05:28:55.927Z,84
2019-02-09T05:29:53.136Z,84
2019-02-09T05:30:54.246Z,84
2019-02-09T05:31:53.161Z,84
2019-02-09T05:32:53.391Z,84
2019-02-09T05:33:53.849Z,84
2019-02-09T05:34:54.793Z,84
2019-02-09T05:35:53.278Z,84
2019-02-09T05:36:53.563Z,84
2019-02-09T05:37:53.657Z,84
2019-02-09T05:38:53.953Z,84
2019-02-09T05:39:53.286Z,84
2019-02-09T05:40:54.821Z,84
2019-02-09T05:41:56.155Z,84
2019-02-09T05:42:57.113Z,85
2019-02-09T05:43:57.402Z,85
2019-02-09T05:44:54.296Z,85
2019-02-09T05:45:53.316Z,85
2019-02-09T05:46:53.421Z,85
2019-02-09T05:47:55.376Z,85
2019-02-09T05:48:53.322Z,85
2019-02-09T05:49:53.501Z,85
2019-02-09T05:50:53.439Z,85
2019-02-09T05:51:53.176Z,85
2019-02-09T05:52:54.475Z,85
2019-02-09T05:53:53.225Z,85
2019-02-09T05:54:53.285Z,85
2019-02-09T05:55:54.259Z,85
2019-02-09T05:56:56.426Z,85
2019-02-09T05:57:53.417Z,85
2019-02-09T05:58:53.240Z,85
2019-02-09T05:59:54.048Z,85
2019-02-09T06:00:53.169Z,85
2019-02-09T06:01:54.292Z,85
2019-02-09T06:02:54.124Z,85
2019-02-09T06:03:53.407Z,85
2019-02-09T06:04:54.431Z,85
2019-02-09T06:05:53.315Z,85
2019-02-09T06:06:53.466Z,85
2019-02-09T06:07:56.931Z,85
2019-02-09T06:08:53.651Z,85
2019-02-09T06:09:57.519Z,85
2019-02-09T06:10:53.629Z,85
2019-02-09T06:11:53.960Z,85
2019-02-09T06:12:54.054Z,85
2019-02-09T06:13:53.786Z,85
2019-02-09T06:14:53.367Z,85
2019-02-09T06:15:53.441Z,85
2019-02-09T06:16:53.459Z,85
2019-02-09T06:17:54.730Z,85
2019-02-09T06:18:53.886Z,85
2019-02-09T06:19:53.612Z,85
2019-02-09T06:20:53.572Z,84
2019-02-09T06:21:53.609Z,84
2019-02-09T06:27:50.229Z,84
2019-02-09T06:27:59.211Z,84
2019-02-09T06:28:59.172Z,84
2019-02-09T06:29:59.311Z,84
2019-02-09T06:30:59.376Z,84
2019-02-09T06:31:59.882Z,84
2019-02-09T06:32:59.600Z,84
2019-02-09T06:33:59.077Z,84
2019-02-09T06:34:59.326Z,84
2019-02-09T06:36:00.817Z,84
2019-02-09T06:38:13.183Z,84
2019-02-09T06:39:12.509Z,84
2019-02-09T06:40:12.644Z,84
2019-02-09T06:41:12.356Z,84
2019-02-09T06:42:12.167Z,84
2019-02-09T06:43:11.984Z,84
2019-02-09T06:44:12.780Z,84
2019-02-09T06:45:12.511Z,84
2019-02-09T06:46:11.961Z,84
2019-02-09T06:47:13.934Z,84
2019-02-09T06:49:30.446Z,83
2019-02-09T06:50:25.805Z,83
2019-02-09T06:51:26.214Z,83
2019-02-09T06:52:26.882Z,83
2019-02-09T06:53:33.862Z,83
2019-02-09T06:54:26.631Z,83
2019-02-09T06:55:26.076Z,83
2019-02-09T06:56:26.522Z,83
2019-02-09T06:57:26.068Z,83
2019-02-09T06:58:25.749Z,83
2019-02-09T06:59:27.351Z,83
2019-02-09T07:00:28.934Z,83
2019-02-09T07:01:26.221Z,82
2019-02-09T07:02:38.526Z,82
2019-02-09T07:03:26.796Z,82
2019-02-09T07:04:26.021Z,82
2019-02-09T07:05:25.745Z,82
2019-02-09T07:06:26.273Z,83
2019-02-09T07:07:26.819Z,83
2019-02-09T07:08:27.453Z,83
2019-02-09T07:09:42.661Z,83
2019-02-09T07:10:26.679Z,83
2019-02-09T07:11:25.982Z,83
2019-02-09T07:12:27.122Z,83
2019-02-09T07:13:29.680Z,83
2019-02-09T07:14:26.054Z,83
2019-02-09T07:15:27.418Z,83
2019-02-09T07:16:25.803Z,83
2019-02-09T07:17:26.328Z,83
2019-02-09T07:18:26.328Z,83
2019-02-09T07:19:26.139Z,83
2019-02-09T07:20:26.820Z,83
2019-02-09T07:21:25.771Z,83
2019-02-09T07:22:25.927Z,83
2019-02-09T07:23:25.665Z,83
2019-02-09T07:24:26.638Z,82
2019-02-09T07:25:25.911Z,82
2019-02-09T07:26:26.289Z,82
2019-02-09T07:27:55.106Z,82
2019-02-09T07:28:25.980Z,82
2019-02-09T07:29:25.659Z,82
2019-02-09T07:30:31.219Z,82
2019-02-09T07:31:25.902Z,82
2019-02-09T07:32:26.248Z,82
2019-02-09T07:33:27.307Z,82
2019-02-09T07:34:26.267Z,82
2019-02-09T07:35:26.043Z,82
2019-02-09T07:36:26.359Z,82
2019-02-09T07:37:25.927Z,82
2019-02-09T07:39:41.342Z,83
2019-02-09T07:40:39.275Z,83
2019-02-09T07:41:40.350Z,84
2019-02-09T07:42:39.234Z,84
2019-02-09T07:43:39.604Z,84
2019-02-09T07:44:39.994Z,84
2019-02-09T07:45:39.786Z,84
2019-02-09T07:46:39.521Z,84
2019-02-09T07:47:40.089Z,84
2019-02-09T07:48:39.815Z,84
2019-02-09T07:49:39.258Z,84
2019-02-09T07:50:41.265Z,84
2019-02-09T07:51:39.282Z,84
2019-02-09T07:52:42.875Z,84
2019-02-09T07:53:40.865Z,84
2019-02-09T07:54:39.977Z,85
2019-02-09T07:55:41.838Z,85
2019-02-09T07:56:43.082Z,85
2019-02-09T07:57:39.292Z,86
2019-02-09T07:58:41.182Z,86
2019-02-09T07:59:39.977Z,85
2019-02-09T08:00:39.282Z,85
2019-02-09T08:01:42.104Z,85
2019-02-09T08:02:43.667Z,86
2019-02-09T08:03:45.330Z,86
2019-02-09T08:04:41.463Z,86
2019-02-09T08:05:39.056Z,86
2019-02-09T08:06:42.580Z,86
2019-02-09T08:07:39.566Z,86
2019-02-09T08:08:39.695Z,86
2019-02-09T08:09:40.313Z,86
2019-02-09T08:10:39.037Z,86
2019-02-09T08:11:38.966Z,86
2019-02-09T08:12:39.159Z,86
2019-02-09T08:13:39.199Z,86
2019-02-09T08:14:39.014Z,86
2019-02-09T08:15:39.171Z,86
2019-02-09T08:16:40.217Z,86
2019-02-09T08:17:39.198Z,86
2019-02-09T08:18:39.473Z,86
2019-02-09T08:19:39.803Z,86
2019-02-09T08:20:39.010Z,86
2019-02-09T08:21:39.427Z,86
2019-02-09T08:22:39.016Z,86
2019-02-09T08:23:39.172Z,86
2019-02-09T08:24:39.263Z,86
2019-02-09T08:25:39.321Z,86
2019-02-09T08:26:39.215Z,86
2019-02-09T08:27:39.794Z,86
2019-02-09T08:28:39.708Z,86
2019-02-09T08:29:41.254Z,86
2019-02-09T08:30:39.195Z,86
2019-02-09T08:31:39.228Z,86
2019-02-09T08:32:39.018Z,86
2019-02-09T08:33:39.246Z,86
2019-02-09T08:34:39.467Z,86
2019-02-09T08:35:40.305Z,86
2019-02-09T08:36:39.288Z,86
2019-02-09T08:37:39.162Z,86
2019-02-09T08:38:39.464Z,86
2019-02-09T08:39:49.622Z,86
2019-02-09T08:40:39.328Z,85
2019-02-09T08:41:39.308Z,85
2019-02-09T08:42:39.915Z,85
2019-02-09T08:43:39.487Z,85
2019-02-09T08:44:38.991Z,85
2019-02-09T08:45:39.246Z,84
2019-02-09T08:46:39.008Z,84
2019-02-09T08:47:39.099Z,84
2019-02-09T08:48:39.498Z,84
2019-02-09T08:49:39.523Z,84
2019-02-09T08:50:39.512Z,82
2019-02-09T08:51:39.199Z,82
2019-02-09T08:52:39.209Z,82
2019-02-09T08:53:39.477Z,82
2019-02-09T08:54:39.482Z,82
2019-02-09T08:55:39.204Z,81
2019-02-09T08:56:39.261Z,81
2019-02-09T08:57:39.055Z,81
2019-02-09T08:58:39.033Z,80
2019-02-09T08:59:39.288Z,80
2019-02-09T09:00:39.268Z,80
2019-02-09T09:01:39.251Z,80
2019-02-09T09:02:39.182Z,80
2019-02-09T09:03:39.349Z,79
2019-02-09T09:04:39.171Z,79
2019-02-09T09:05:39.291Z,78
2019-02-09T09:06:39.255Z,78
2019-02-09T09:07:39.499Z,78
2019-02-09T09:08:39.994Z,78
2019-02-09T09:09:39.240Z,78
2019-02-09T09:10:39.236Z,78
2019-02-09T09:11:39.494Z,78
2019-02-09T09:12:39.512Z,78
2019-02-09T09:13:39.092Z,76
2019-02-09T09:24:31.498Z,76
2019-02-09T09:25:32.154Z,75
2019-02-09T09:26:31.697Z,74
2019-02-09T09:27:31.906Z,74
2019-02-09T09:28:31.724Z,73
2019-02-09T09:29:31.879Z,73
2019-02-09T09:30:31.950Z,73
2019-02-09T09:31:32.555Z,73
2019-02-09T09:32:32.163Z,73
2019-02-09T09:33:32.247Z,72
2019-02-09T09:34:32.928Z,72
2019-02-09T09:35:33.472Z,72
2019-02-09T09:36:32.119Z,72
2019-02-09T09:37:31.981Z,72
2019-02-09T09:38:31.915Z,72
2019-02-09T09:39:31.765Z,72
2019-02-09T09:40:32.829Z,72
2019-02-09T09:41:32.132Z,73
2019-02-09T09:42:31.732Z,73
2019-02-09T09:43:34.021Z,72
2019-02-09T09:44:32.139Z,72
2019-02-09T09:45:32.190Z,72
2019-02-09T09:46:31.749Z,72
2019-02-09T09:47:32.353Z,72
2019-02-09T09:48:31.914Z,72
2019-02-09T09:49:32.242Z,72
2019-02-09T09:50:32.970Z,72
2019-02-09T09:51:31.994Z,72
2019-02-09T09:52:31.849Z,72
2019-02-09T09:53:31.895Z,72
2019-02-09T09:54:31.969Z,72
2019-02-09T09:55:31.947Z,72
2019-02-09T09:56:32.027Z,72
2019-02-09T09:57:31.988Z,72
2019-02-09T09:58:32.253Z,72
2019-02-09T09:59:32.204Z,72
2019-02-09T10:00:31.965Z,72
2019-02-09T10:01:31.955Z,72
2019-02-09T10:03:00.653Z,72
2019-02-09T10:03:32.246Z,72
2019-02-09T10:04:32.169Z,72
2019-02-09T10:05:31.991Z,72
2019-02-09T10:06:32.313Z,72
2019-02-09T10:07:31.950Z,72
2019-02-09T10:08:32.088Z,72
2019-02-09T10:09:31.946Z,72
2019-02-09T10:10:32.191Z,72
2019-02-09T10:11:31.996Z,71
2019-02-09T10:12:32.258Z,71
2019-02-09T10:13:32.450Z,71
2019-02-09T10:14:32.238Z,71
2019-02-09T10:15:32.395Z,71
2019-02-09T10:16:31.998Z,71
2019-02-09T10:17:31.817Z,71
2019-02-09T10:18:32.225Z,71
2019-02-09T10:19:32.489Z,71
2019-02-09T10:20:31.875Z,71
2019-02-09T10:21:32.222Z,71
2019-02-09T10:22:32.031Z,70
2019-02-09T10:23:31.801Z,70
2019-02-09T10:24:31.820Z,70
2019-02-09T10:25:31.971Z,70
2019-02-09T10:26:32.027Z,70
2019-02-09T10:27:31.848Z,70
2019-02-09T10:28:32.004Z,70
2019-02-09T10:29:32.016Z,70
2019-02-09T10:30:32.654Z,70
2019-02-09T10:31:32.015Z,70
2019-02-09T10:32:32.247Z,70
2019-02-09T10:33:32.035Z,70
2019-02-09T10:34:31.932Z,70
2019-02-09T10:35:32.290Z,70
2019-02-09T10:36:32.311Z,70
2019-02-09T10:37:32.023Z,70
2019-02-09T10:38:33.289Z,70
2019-02-09T10:39:34.484Z,70
2019-02-09T10:40:32.252Z,70
2019-02-09T10:41:32.043Z,70
2019-02-09T10:42:32.282Z,70
2019-02-09T10:43:32.229Z,70
2019-02-09T10:44:31.999Z,71
2019-02-09T10:45:32.047Z,71
2019-02-09T10:46:31.915Z,71
2019-02-09T10:47:31.803Z,70
2019-02-09T10:48:32.020Z,70
2019-02-09T10:49:31.933Z,70
2019-02-09T10:50:31.874Z,70
2019-02-09T10:51:32.494Z,70
2019-02-09T10:52:32.169Z,69
2019-02-09T10:53:32.019Z,69
2019-02-09T10:54:32.280Z,69
2019-02-09T10:55:32.088Z,69
2019-02-09T10:56:32.348Z,69
2019-02-09T10:57:32.073Z,70
2019-02-09T10:58:32.388Z,70
2019-02-09T10:59:32.063Z,70
2019-02-09T11:00:32.033Z,70
2019-02-09T11:01:32.281Z,70
2019-02-09T11:02:32.038Z,71
2019-02-09T11:03:31.856Z,71
2019-02-09T11:04:32.500Z,71
2019-02-09T11:05:31.891Z,71
2019-02-09T11:06:32.327Z,71
2019-02-09T11:07:31.927Z,72
2019-02-09T11:08:32.370Z,72
2019-02-09T11:09:32.083Z,72
2019-02-09T11:10:32.340Z,71
2019-02-09T11:11:32.071Z,71
2019-02-09T11:12:31.884Z,71
2019-02-09T11:13:32.187Z,71
2019-02-09T11:14:32.165Z,71
2019-02-09T11:15:31.939Z,72
2019-02-09T11:16:31.870Z,72
2019-02-09T11:17:32.166Z,74
2019-02-09T11:18:32.802Z,74
2019-02-09T11:19:32.494Z,74
2019-02-09T11:20:32.109Z,74
2019-02-09T11:21:31.963Z,74
2019-02-09T11:22:32.932Z,74
2019-02-09T11:23:31.883Z,75
2019-02-09T11:24:32.801Z,75
2019-02-09T11:25:31.909Z,76
2019-02-09T11:26:32.045Z,76
2019-02-09T11:27:31.926Z,76
2019-02-09T11:28:32.665Z,77
2019-02-09T11:29:32.095Z,77
2019-02-09T11:30:32.639Z,77
2019-02-09T11:31:32.177Z,77
2019-02-09T11:32:32.401Z,77
2019-02-09T11:33:32.366Z,77
2019-02-09T11:34:31.999Z,77
2019-02-09T11:35:32.341Z,77
2019-02-09T11:36:31.924Z,77
2019-02-09T11:37:33.122Z,77
2019-02-09T11:38:32.119Z,78
2019-02-09T11:39:32.384Z,78
2019-02-09T11:40:33.202Z,77
2019-02-09T11:41:33.024Z,77
2019-02-09T11:42:32.216Z,77
2019-02-09T11:43:32.453Z,76
2019-02-09T11:44:32.098Z,76
2019-02-09T11:45:31.925Z,76
2019-02-09T11:46:32.164Z,76
2019-02-09T11:47:32.438Z,76
2019-02-09T11:48:32.029Z,75
2019-02-09T11:49:32.744Z,75
2019-02-09T11:50:32.441Z,75
2019-02-09T11:51:31.952Z,75
2019-02-09T11:52:32.250Z,75
2019-02-09T11:53:32.137Z,75
2019-02-09T11:54:32.786Z,75
2019-02-09T11:55:32.723Z,75
2019-02-09T11:56:32.188Z,76
2019-02-09T11:57:32.555Z,76
2019-02-09T11:58:32.411Z,75
2019-02-09T11:59:32.160Z,75
2019-02-09T12:00:32.227Z,75
2019-02-09T12:01:32.195Z,75
2019-02-09T12:02:32.014Z,75
2019-02-09T12:03:32.195Z,74
2019-02-09T12:04:32.209Z,74
2019-02-09T12:05:32.540Z,74
2019-02-09T12:06:32.437Z,73
2019-02-09T12:07:33.953Z,73
2019-02-09T12:08:32.569Z,72
2019-02-09T12:09:34.774Z,72
2019-02-09T12:10:32.554Z,72
2019-02-09T12:11:31.977Z,71
2019-02-09T12:12:32.565Z,71
2019-02-09T12:13:32.186Z,70
2019-02-09T12:14:32.363Z,70
2019-02-09T12:15:32.199Z,70
2019-02-09T12:16:32.434Z,69
2019-02-09T12:17:32.280Z,69
2019-02-09T12:18:32.479Z,68
2019-02-09T12:19:32.582Z,68
2019-02-09T12:20:32.223Z,68
2019-02-09T12:21:32.428Z,68
2019-02-09T12:22:32.965Z,68
2019-02-09T12:23:32.468Z,68
2019-02-09T12:24:32.016Z,67
2019-02-09T12:25:32.216Z,67
2019-02-09T12:26:32.186Z,67
2019-02-09T12:27:32.448Z,67
2019-02-09T12:28:32.254Z,67
2019-02-09T12:29:32.287Z,66
2019-02-09T12:30:32.491Z,66
2019-02-09T12:31:32.199Z,65
2019-02-09T12:32:32.205Z,65
2019-02-09T12:34:00.791Z,65
2019-02-09T12:34:32.298Z,65
2019-02-09T12:35:32.197Z,65
2019-02-09T12:36:32.338Z,64
2019-02-09T12:37:32.188Z,64
2019-02-09T12:38:32.468Z,64
2019-02-09T12:39:32.233Z,65
2019-02-09T12:40:32.282Z,65
2019-02-09T12:41:32.059Z,64
2019-02-09T12:42:32.272Z,64
2019-02-09T12:43:32.511Z,64
2019-02-09T12:44:33.384Z,64
2019-02-09T12:45:32.292Z,64
2019-02-09T12:46:32.279Z,64
2019-02-09T12:47:32.339Z,64
2019-02-09T12:48:32.246Z,64
2019-02-09T12:49:32.429Z,64
2019-02-09T12:50:32.303Z,64
2019-02-09T12:51:32.777Z,64
2019-02-09T12:52:32.519Z,64
2019-02-09T12:53:32.172Z,64
2019-02-09T12:54:32.281Z,65
2019-02-09T12:55:32.190Z,65
2019-02-09T12:56:32.589Z,65
2019-02-09T12:57:32.482Z,64
2019-02-09T12:58:32.477Z,64
2019-02-09T12:59:32.031Z,64
2019-02-09T13:00:32.250Z,64
2019-02-09T13:01:32.235Z,64
2019-02-09T13:02:32.341Z,64
2019-02-09T13:03:32.340Z,64
2019-02-09T13:04:32.715Z,65
2019-02-09T13:05:32.513Z,65
2019-02-09T13:06:32.034Z,65
2019-02-09T13:07:32.338Z,64
2019-02-09T13:08:32.346Z,64
2019-02-09T13:09:32.339Z,63
2019-02-09T13:10:32.414Z,63
2019-02-09T13:11:32.560Z,63
2019-02-09T13:12:32.267Z,64
2019-02-09T13:13:33.480Z,64
2019-02-09T13:14:32.251Z,64
2019-02-09T13:15:32.025Z,64
2019-02-09T13:16:32.035Z,64
2019-02-09T13:17:32.551Z,65
2019-02-09T13:18:34.649Z,65
2019-02-09T13:19:35.457Z,64
2019-02-09T13:20:32.410Z,64
2019-02-09T13:21:32.431Z,64
2019-02-09T13:22:32.457Z,64
2019-02-09T13:23:33.444Z,64
2019-02-09T13:24:32.338Z,64
2019-02-09T13:25:32.311Z,65
2019-02-09T13:26:32.179Z,65
2019-02-09T13:27:33.126Z,66
2019-02-09T13:28:32.470Z,66
2019-02-09T13:29:32.703Z,66
2019-02-09T13:30:32.511Z,65
2019-02-09T13:31:32.570Z,65
2019-02-09T13:32:32.671Z,65
2019-02-09T13:33:38.621Z,65
2019-02-09T13:34:32.311Z,65
2019-02-09T13:35:32.310Z,65
2019-02-09T13:36:32.225Z,65
2019-02-09T13:37:32.513Z,66
2019-02-09T13:38:32.356Z,66
2019-02-09T13:39:32.387Z,66
2019-02-09T13:40:32.338Z,66
2019-02-09T13:41:32.218Z,66
2019-02-09T13:42:32.783Z,65
2019-02-09T13:43:32.269Z,65
2019-02-09T13:44:32.166Z,65
2019-02-09T13:45:32.474Z,67
2019-02-09T13:46:32.595Z,67
2019-02-09T13:47:32.787Z,67
2019-02-09T13:48:32.527Z,67
2019-02-09T13:49:32.627Z,67
2019-02-09T13:50:33.003Z,67
2019-02-09T13:51:32.517Z,67
2019-02-09T13:52:32.331Z,67
2019-02-09T13:53:32.317Z,67
2019-02-09T13:54:32.565Z,67
2019-02-09T13:55:33.042Z,67
2019-02-09T13:56:32.292Z,67
2019-02-09T13:57:33.181Z,67
2019-02-09T13:58:32.468Z,67
2019-02-09T13:59:32.510Z,67
2019-02-09T14:00:33.003Z,69
2019-02-09T14:01:32.396Z,69
2019-02-09T14:02:32.367Z,69
2019-02-09T14:03:32.628Z,70
2019-02-09T14:04:32.894Z,70
2019-02-09T14:05:33.080Z,69
2019-02-09T14:06:32.766Z,69
2019-02-09T14:07:32.347Z,69
2019-02-09T14:08:32.866Z,70
2019-02-09T14:09:32.643Z,70
2019-02-09T14:10:32.476Z,70
2019-02-09T14:11:32.457Z,70
2019-02-09T14:12:32.835Z,70
2019-02-09T14:13:32.292Z,70
2019-02-09T14:14:32.578Z,70
2019-02-09T14:15:33.045Z,69
2019-02-09T14:16:38.448Z,69
2019-02-09T14:17:32.480Z,69
2019-02-09T14:18:32.518Z,68
2019-02-09T14:19:32.433Z,68
2019-02-09T14:20:33.282Z,67
2019-02-09T14:21:32.712Z,67
2019-02-09T14:22:32.713Z,67
2019-02-09T14:23:33.179Z,67
2019-02-09T14:24:32.436Z,67
2019-02-09T14:25:32.471Z,67
2019-02-09T14:26:32.691Z,67
2019-02-09T14:27:32.266Z,67
2019-02-09T14:28:32.513Z,68
2019-02-09T14:29:32.489Z,68
2019-02-09T14:30:32.433Z,68
2019-02-09T14:31:33.763Z,68
2019-02-09T14:32:32.318Z,68
2019-02-09T14:33:33.866Z,68
2019-02-09T14:34:32.554Z,68
2019-02-09T14:35:32.457Z,68
2019-02-09T14:36:32.496Z,68
2019-02-09T14:37:32.270Z,68
2019-02-09T14:38:32.470Z,69
2019-02-09T14:39:32.468Z,69
2019-02-09T14:40:32.701Z,69
2019-02-09T14:41:32.492Z,68
2019-02-09T14:42:32.500Z,68
2019-02-09T14:43:32.285Z,69
2019-02-09T14:44:32.730Z,69